sensor_id;sensor_type;location;lat;lon;timestamp;pressure;altitude;pressure_sealevel;temperature;humidity
68871;BME280;55906;52.278;6.808;2022-07-25T00:00:12;100926.31;;;23.43;54.78
68871;BME280;55906;52.278;6.808;2022-07-25T00:02:39;100932.59;;;23.42;54.75
68871;BME280;55906;52.278;6.808;2022-07-25T00:05:06;100916.53;;;23.41;54.76
68871;BME280;55906;52.278;6.808;2022-07-25T00:07:33;100919.25;;;23.38;54.62
68871;BME280;55906;52.278;6.808;2022-07-25T00:09:59;100915.78;;;23.34;54.89
68871;BME280;55906;52.278;6.808;2022-07-25T00:12:26;100911.41;;;23.30;54.99
68871;BME280;55906;52.278;6.808;2022-07-25T00:14:53;100913.31;;;23.25;55.27
68871;BME280;55906;52.278;6.808;2022-07-25T00:17:20;100911.63;;;23.21;55.21
68871;BME280;55906;52.278;6.808;2022-07-25T00:19:47;100909.94;;;23.17;55.45
68871;BME280;55906;52.278;6.808;2022-07-25T00:22:14;100910.91;;;23.14;55.26
68871;BME280;55906;52.278;6.808;2022-07-25T00:24:41;100902.94;;;23.11;55.71
68871;BME280;55906;52.278;6.808;2022-07-25T00:27:07;100893.16;;;23.09;55.69
68871;BME280;55906;52.278;6.808;2022-07-25T00:29:34;100888.78;;;23.05;55.84
68871;BME280;55906;52.278;6.808;2022-07-25T00:32:01;100885.25;;;23.03;55.94
68871;BME280;55906;52.278;6.808;2022-07-25T00:34:29;100894.22;;;23.02;55.95
68871;BME280;55906;52.278;6.808;2022-07-25T00:36:56;100888.03;;;22.99;55.71
68871;BME280;55906;52.278;6.808;2022-07-25T00:39:22;100892.53;;;22.97;55.82
68871;BME280;55906;52.278;6.808;2022-07-25T00:41:49;100880.13;;;22.93;55.86
68871;BME280;55906;52.278;6.808;2022-07-25T00:44:23;100881.09;;;22.91;57.26
68871;BME280;55906;52.278;6.808;2022-07-25T00:46:50;100867.81;;;22.85;56.55
68871;BME280;55906;52.278;6.808;2022-07-25T00:49:17;100868.81;;;22.79;56.47
68871;BME280;55906;52.278;6.808;2022-07-25T00:51:46;100868.91;;;22.76;56.57
68871;BME280;55906;52.278;6.808;2022-07-25T00:54:13;100864.53;;;22.72;56.60
68871;BME280;55906;52.278;6.808;2022-07-25T00:56:40;100867.28;;;22.69;56.80
68871;BME280;55906;52.278;6.808;2022-07-25T00:59:08;100862.91;;;22.65;56.99
68871;BME280;55906;52.278;6.808;2022-07-25T01:01:35;100860.38;;;22.59;57.02
68871;BME280;55906;52.278;6.808;2022-07-25T01:04:03;100859.53;;;22.57;57.11
68871;BME280;55906;52.278;6.808;2022-07-25T01:06:30;100852.50;;;22.51;57.45
68871;BME280;55906;52.278;6.808;2022-07-25T01:09:00;100851.69;;;22.48;57.69
68871;BME280;55906;52.278;6.808;2022-07-25T01:11:27;100847.31;;;22.44;57.88
68871;BME280;55906;52.278;6.808;2022-07-25T01:13:53;100846.53;;;22.39;57.54
68871;BME280;55906;52.278;6.808;2022-07-25T01:16:20;100851.13;;;22.33;58.12
68871;BME280;55906;52.278;6.808;2022-07-25T01:18:47;100841.38;;;22.31;57.69
68871;BME280;55906;52.278;6.808;2022-07-25T01:21:15;100838.78;;;22.26;57.92
68871;BME280;55906;52.278;6.808;2022-07-25T01:23:41;100845.13;;;22.22;58.20
68871;BME280;55906;52.278;6.808;2022-07-25T01:26:08;100845.22;;;22.18;58.18
68871;BME280;55906;52.278;6.808;2022-07-25T01:28:34;100835.53;;;22.12;58.58
68871;BME280;55906;52.278;6.808;2022-07-25T01:31:01;100833.81;;;22.08;58.30
68871;BME280;55906;52.278;6.808;2022-07-25T01:33:28;100839.22;;;22.05;58.26
68871;BME280;55906;52.278;6.808;2022-07-25T01:35:54;100829.47;;;22.01;58.37
68871;BME280;55906;52.278;6.808;2022-07-25T01:38:22;100826.81;;;21.99;58.74
68871;BME280;55906;52.278;6.808;2022-07-25T01:40:52;100831.34;;;21.96;58.66
68871;BME280;55906;52.278;6.808;2022-07-25T01:43:18;100819.78;;;21.94;58.82
68871;BME280;55906;52.278;6.808;2022-07-25T01:45:45;100822.53;;;21.91;58.84
68871;BME280;55906;52.278;6.808;2022-07-25T01:48:11;100821.69;;;21.89;59.02
68871;BME280;55906;52.278;6.808;2022-07-25T01:50:38;100818.16;;;21.87;58.96
68871;BME280;55906;52.278;6.808;2022-07-25T01:53:05;100811.97;;;21.85;59.46
68871;BME280;55906;52.278;6.808;2022-07-25T01:58:56;100807.63;;;21.78;59.27
68871;BME280;55906;52.278;6.808;2022-07-25T02:01:23;100805.03;;;21.75;59.16
68871;BME280;55906;52.278;6.808;2022-07-25T02:03:50;100805.06;;;21.73;59.08
68871;BME280;55906;52.278;6.808;2022-07-25T02:06:17;100798.84;;;21.71;59.30
68871;BME280;55906;52.278;6.808;2022-07-25T02:08:45;100797.09;;;21.70;59.35
68871;BME280;55906;52.278;6.808;2022-07-25T02:11:11;100791.63;;;21.75;59.36
68871;BME280;55906;52.278;6.808;2022-07-25T02:13:38;100787.06;;;21.80;58.54
68871;BME280;55906;52.278;6.808;2022-07-25T02:16:06;100786.97;;;21.84;58.60
68871;BME280;55906;52.278;6.808;2022-07-25T02:18:33;100785.97;;;21.88;58.41
68871;BME280;55906;52.278;6.808;2022-07-25T02:20:59;100778.72;;;21.93;57.75
68871;BME280;55906;52.278;6.808;2022-07-25T02:23:26;100783.94;;;21.99;57.21
68871;BME280;55906;52.278;6.808;2022-07-25T02:25:53;100780.28;;;22.05;57.27
68871;BME280;55906;52.278;6.808;2022-07-25T02:28:19;100776.56;;;22.12;56.70
68871;BME280;55906;52.278;6.808;2022-07-25T02:30:46;100772.84;;;22.19;56.67
68871;BME280;55906;52.278;6.808;2022-07-25T02:33:14;100772.72;;;22.24;56.13
68871;BME280;55906;52.278;6.808;2022-07-25T02:35:40;100773.50;;;22.29;55.95
68871;BME280;55906;52.278;6.808;2022-07-25T02:38:07;100761.00;;;22.28;56.00
68871;BME280;55906;52.278;6.808;2022-07-25T02:40:34;100772.53;;;22.31;55.47
68871;BME280;55906;52.278;6.808;2022-07-25T02:43:00;100763.44;;;22.39;55.54
68871;BME280;55906;52.278;6.808;2022-07-25T02:45:27;100759.84;;;22.40;55.45
68871;BME280;55906;52.278;6.808;2022-07-25T02:47:53;100756.19;;;22.42;55.15
68871;BME280;55906;52.278;6.808;2022-07-25T02:50:21;100756.16;;;22.44;55.23
68871;BME280;55906;52.278;6.808;2022-07-25T02:52:48;100750.78;;;22.44;55.62
68871;BME280;55906;52.278;6.808;2022-07-25T02:55:14;100741.84;;;22.45;55.16
68871;BME280;55906;52.278;6.808;2022-07-25T02:57:41;100750.78;;;22.44;55.75
68871;BME280;55906;52.278;6.808;2022-07-25T03:00:09;100738.22;;;22.46;55.11
68871;BME280;55906;52.278;6.808;2022-07-25T03:02:36;100731.09;;;22.45;55.30
68871;BME280;55906;52.278;6.808;2022-07-25T03:05:05;100727.53;;;22.44;55.16
68871;BME280;55906;52.278;6.808;2022-07-25T03:07:33;100723.97;;;22.44;55.38
68871;BME280;55906;52.278;6.808;2022-07-25T03:10:00;100732.94;;;22.43;54.73
68871;BME280;55906;52.278;6.808;2022-07-25T03:12:27;100730.38;;;22.38;55.25
68871;BME280;55906;52.278;6.808;2022-07-25T03:14:53;100726.75;;;22.41;55.13
68871;BME280;55906;52.278;6.808;2022-07-25T03:17:20;100725.91;;;22.39;55.10
68871;BME280;55906;52.278;6.808;2022-07-25T03:19:46;100715.22;;;22.37;55.25
68871;BME280;55906;52.278;6.808;2022-07-25T03:22:13;100718.84;;;22.34;55.25
68871;BME280;55906;52.278;6.808;2022-07-25T03:24:41;100715.41;;;22.29;55.80
68871;BME280;55906;52.278;6.808;2022-07-25T03:27:08;100718.13;;;22.28;55.67
68871;BME280;55906;52.278;6.808;2022-07-25T03:29:35;100712.81;;;22.26;56.10
68871;BME280;55906;52.278;6.808;2022-07-25T03:32:01;100700.31;;;22.25;55.76
68871;BME280;55906;52.278;6.808;2022-07-25T03:34:28;100705.72;;;22.24;56.00
68871;BME280;55906;52.278;6.808;2022-07-25T03:36:55;100703.03;;;22.24;55.88
68871;BME280;55906;52.278;6.808;2022-07-25T03:39:21;100698.56;;;22.24;55.55
68871;BME280;55906;52.278;6.808;2022-07-25T03:41:50;100699.47;;;22.23;55.82
68871;BME280;55906;52.278;6.808;2022-07-25T03:44:17;100706.63;;;22.23;55.75
68871;BME280;55906;52.278;6.808;2022-07-25T03:46:44;100695.88;;;22.24;56.04
68871;BME280;55906;52.278;6.808;2022-07-25T03:49:11;100688.81;;;22.20;56.07
68871;BME280;55906;52.278;6.808;2022-07-25T03:51:37;100685.22;;;22.21;56.30
68871;BME280;55906;52.278;6.808;2022-07-25T03:54:04;100683.47;;;22.20;56.15
68871;BME280;55906;52.278;6.808;2022-07-25T03:56:36;100680.78;;;22.20;56.54
68871;BME280;55906;52.278;6.808;2022-07-25T03:59:05;100686.16;;;22.20;55.99
68871;BME280;55906;52.278;6.808;2022-07-25T04:01:33;100686.19;;;22.19;55.95
68871;BME280;55906;52.278;6.808;2022-07-25T04:04:01;100682.59;;;22.20;55.88
68871;BME280;55906;52.278;6.808;2022-07-25T04:06:27;100689.66;;;22.22;55.91
68871;BME280;55906;52.278;6.808;2022-07-25T04:08:55;100700.44;;;22.21;55.86
68871;BME280;55906;52.278;6.808;2022-07-25T04:11:22;100687.06;;;22.19;55.97
68871;BME280;55906;52.278;6.808;2022-07-25T04:13:49;100679.03;;;22.19;56.15
68871;BME280;55906;52.278;6.808;2022-07-25T04:16:17;100682.69;;;22.15;56.55
68871;BME280;55906;52.278;6.808;2022-07-25T04:18:44;100681.75;;;22.18;56.53
68871;BME280;55906;52.278;6.808;2022-07-25T04:21:11;100675.47;;;22.19;56.66
68871;BME280;55906;52.278;6.808;2022-07-25T04:23:37;100666.47;;;22.21;56.63
68871;BME280;55906;52.278;6.808;2022-07-25T04:26:04;100671.81;;;22.21;56.36
68871;BME280;55906;52.278;6.808;2022-07-25T04:28:32;100671.75;;;22.24;56.12
68871;BME280;55906;52.278;6.808;2022-07-25T04:30:58;100670.00;;;22.23;56.34
68871;BME280;55906;52.278;6.808;2022-07-25T04:33:27;100663.63;;;22.27;56.22
68871;BME280;55906;52.278;6.808;2022-07-25T04:35:54;100668.91;;;22.30;56.19
68871;BME280;55906;52.278;6.808;2022-07-25T04:38:21;100666.13;;;22.35;56.13
68871;BME280;55906;52.278;6.808;2022-07-25T04:40:47;100667.75;;;22.41;55.85
68871;BME280;55906;52.278;6.808;2022-07-25T04:43:14;100654.19;;;22.47;55.64
68871;BME280;55906;52.278;6.808;2022-07-25T04:45:41;100654.09;;;22.50;55.97
68871;BME280;55906;52.278;6.808;2022-07-25T04:48:07;100654.03;;;22.53;55.89
68871;BME280;55906;52.278;6.808;2022-07-25T04:50:36;100652.81;;;22.64;55.34
68871;BME280;55906;52.278;6.808;2022-07-25T04:53:02;100648.19;;;22.70;55.54
68871;BME280;55906;52.278;6.808;2022-07-25T04:55:29;100643.44;;;22.81;55.29
68871;BME280;55906;52.278;6.808;2022-07-25T04:57:56;100639.72;;;22.86;55.05
68871;BME280;55906;52.278;6.808;2022-07-25T05:00:25;100645.75;;;22.94;55.15
68871;BME280;55906;52.278;6.808;2022-07-25T05:02:52;100633.91;;;23.02;54.51
68871;BME280;55906;52.278;6.808;2022-07-25T05:05:19;100634.41;;;23.14;53.98
68871;BME280;55906;52.278;6.808;2022-07-25T05:07:47;100630.59;;;23.23;54.16
68871;BME280;55906;52.278;6.808;2022-07-25T05:10:14;100630.41;;;23.29;54.37
68871;BME280;55906;52.278;6.808;2022-07-25T05:12:40;100632.94;;;23.34;53.67
68871;BME280;55906;52.278;6.808;2022-07-25T05:15:08;100635.44;;;23.41;53.11
68871;BME280;55906;52.278;6.808;2022-07-25T05:17:35;100624.59;;;23.44;53.50
68871;BME280;55906;52.278;6.808;2022-07-25T05:20:02;100628.78;;;23.53;53.13
68871;BME280;55906;52.278;6.808;2022-07-25T05:22:28;100629.66;;;23.55;53.02
68871;BME280;55906;52.278;6.808;2022-07-25T05:24:56;100621.41;;;23.61;52.66
68871;BME280;55906;52.278;6.808;2022-07-25T05:27:24;100617.59;;;23.68;52.92
68871;BME280;55906;52.278;6.808;2022-07-25T05:29:50;100619.06;;;23.78;52.47
68871;BME280;55906;52.278;6.808;2022-07-25T05:32:17;100619.59;;;23.89;52.16
68871;BME280;55906;52.278;6.808;2022-07-25T05:34:44;100617.47;;;23.99;52.04
68871;BME280;55906;52.278;6.808;2022-07-25T05:37:11;100613.59;;;24.08;51.67
68871;BME280;55906;52.278;6.808;2022-07-25T05:39:37;100618.59;;;24.18;51.33
68871;BME280;55906;52.278;6.808;2022-07-25T05:42:06;100618.25;;;24.29;51.07
68871;BME280;55906;52.278;6.808;2022-07-25T05:44:32;100609.81;;;24.40;50.40
68871;BME280;55906;52.278;6.808;2022-07-25T05:46:59;100611.13;;;24.53;49.89
68871;BME280;55906;52.278;6.808;2022-07-25T05:49:26;100610.09;;;24.57;50.43
68871;BME280;55906;52.278;6.808;2022-07-25T05:51:53;100607.19;;;24.63;50.23
68871;BME280;55906;52.278;6.808;2022-07-25T05:54:19;100606.19;;;24.66;49.90
68871;BME280;55906;52.278;6.808;2022-07-25T05:56:46;100604.38;;;24.66;49.68
68871;BME280;55906;52.278;6.808;2022-07-25T05:59:14;100607.94;;;24.67;49.61
68871;BME280;55906;52.278;6.808;2022-07-25T06:01:40;100601.63;;;24.68;49.71
68871;BME280;55906;52.278;6.808;2022-07-25T06:04:07;100601.44;;;24.74;49.59
68871;BME280;55906;52.278;6.808;2022-07-25T06:06:33;100595.25;;;24.70;49.46
68871;BME280;55906;52.278;6.808;2022-07-25T06:09:00;100598.75;;;24.74;49.21
68871;BME280;55906;52.278;6.808;2022-07-25T06:11:26;100587.81;;;24.78;49.11
68871;BME280;55906;52.278;6.808;2022-07-25T06:13:55;100594.06;;;24.79;49.00
68871;BME280;55906;52.278;6.808;2022-07-25T06:16:23;100592.03;;;24.85;48.87
68871;BME280;55906;52.278;6.808;2022-07-25T06:18:49;100585.84;;;24.83;49.03
68871;BME280;55906;52.278;6.808;2022-07-25T06:21:16;100589.34;;;24.85;48.96
68871;BME280;55906;52.278;6.808;2022-07-25T06:23:43;100583.97;;;24.85;49.04
68871;BME280;55906;52.278;6.808;2022-07-25T06:26:10;100583.72;;;24.92;48.93
68871;BME280;55906;52.278;6.808;2022-07-25T06:28:36;100597.88;;;24.98;48.79
68871;BME280;55906;52.278;6.808;2022-07-25T06:31:03;100602.25;;;25.01;48.71
68871;BME280;55906;52.278;6.808;2022-07-25T06:33:31;100584.13;;;25.06;48.44
68871;BME280;55906;52.278;6.808;2022-07-25T06:35:58;100591.94;;;25.12;48.86
68871;BME280;55906;52.278;6.808;2022-07-25T06:38:24;100598.09;;;25.15;47.98
68871;BME280;55906;52.278;6.808;2022-07-25T06:40:51;100597.22;;;25.15;48.54
68871;BME280;55906;52.278;6.808;2022-07-25T06:43:18;100589.97;;;25.17;48.29
68871;BME280;55906;52.278;6.808;2022-07-25T06:45:44;100586.09;;;25.24;48.01
68871;BME280;55906;52.278;6.808;2022-07-25T06:48:12;100592.06;;;25.32;47.52
68871;BME280;55906;52.278;6.808;2022-07-25T06:50:40;100591.69;;;25.41;47.28
68871;BME280;55906;52.278;6.808;2022-07-25T06:53:07;100590.50;;;25.48;46.40
68871;BME280;55906;52.278;6.808;2022-07-25T06:55:34;100589.19;;;25.59;46.13
68871;BME280;55906;52.278;6.808;2022-07-25T06:58:00;100590.34;;;25.75;46.02
68871;BME280;55906;52.278;6.808;2022-07-25T07:00:29;100590.28;;;25.76;45.45
68871;BME280;55906;52.278;6.808;2022-07-25T07:02:57;100594.81;;;25.76;45.91
68871;BME280;55906;52.278;6.808;2022-07-25T07:05:28;100590.03;;;25.82;45.71
68871;BME280;55906;52.278;6.808;2022-07-25T07:07:57;100589.97;;;25.84;45.58
68871;BME280;55906;52.278;6.808;2022-07-25T07:10:25;100589.03;;;25.85;45.44
68871;BME280;55906;52.278;6.808;2022-07-25T07:13:02;100586.19;;;25.88;45.04
68871;BME280;55906;52.278;6.808;2022-07-25T07:15:29;100591.72;;;25.85;45.69
68871;BME280;55906;52.278;6.808;2022-07-25T07:17:55;100591.59;;;25.88;45.89
68871;BME280;55906;52.278;6.808;2022-07-25T07:20:22;100588.78;;;25.91;45.40
68871;BME280;55906;52.278;6.808;2022-07-25T07:22:48;100590.25;;;25.98;44.99
68871;BME280;55906;52.278;6.808;2022-07-25T07:25:18;100585.13;;;26.14;45.40
68871;BME280;55906;52.278;6.808;2022-07-25T07:27:45;100580.06;;;26.27;44.96
68871;BME280;55906;52.278;6.808;2022-07-25T07:30:12;100584.84;;;26.42;45.15
68871;BME280;55906;52.278;6.808;2022-07-25T07:32:40;100578.63;;;26.60;44.39
68871;BME280;55906;52.278;6.808;2022-07-25T07:35:07;100581.22;;;26.82;44.32
68871;BME280;55906;52.278;6.808;2022-07-25T07:37:35;100572.38;;;26.78;44.42
68871;BME280;55906;52.278;6.808;2022-07-25T07:40:02;100562.53;;;26.77;44.43
68871;BME280;55906;52.278;6.808;2022-07-25T07:42:37;100562.91;;;26.89;44.55
68871;BME280;55906;52.278;6.808;2022-07-25T07:45:13;100571.28;;;27.03;44.28
68871;BME280;55906;52.278;6.808;2022-07-25T07:47:40;100573.03;;;27.04;44.46
68871;BME280;55906;52.278;6.808;2022-07-25T07:50:09;100550.69;;;27.19;44.04
68871;BME280;55906;52.278;6.808;2022-07-25T07:52:36;100560.94;;;27.31;43.85
68871;BME280;55906;52.278;6.808;2022-07-25T07:55:03;100561.50;;;27.38;43.42
68871;BME280;55906;52.278;6.808;2022-07-25T07:57:48;100584.44;;;27.48;43.54
68871;BME280;55906;52.278;6.808;2022-07-25T08:00:16;100576.63;;;27.61;43.02
68871;BME280;55906;52.278;6.808;2022-07-25T08:02:44;100583.56;;;27.66;42.99
68871;BME280;55906;52.278;6.808;2022-07-25T08:05:11;100585.44;;;27.83;43.24
68871;BME280;55906;52.278;6.808;2022-07-25T08:07:38;100569.69;;;27.91;43.03
68871;BME280;55906;52.278;6.808;2022-07-25T08:10:05;100564.44;;;27.88;43.24
68871;BME280;55906;52.278;6.808;2022-07-25T08:12:32;100565.88;;;27.95;42.95
68871;BME280;55906;52.278;6.808;2022-07-25T08:15:00;100557.38;;;28.03;43.26
68871;BME280;55906;52.278;6.808;2022-07-25T08:17:26;100569.69;;;28.09;42.84
68871;BME280;55906;52.278;6.808;2022-07-25T08:19:53;100569.94;;;28.21;42.64
68871;BME280;55906;52.278;6.808;2022-07-25T08:22:20;100564.41;;;28.24;42.70
68871;BME280;55906;52.278;6.808;2022-07-25T08:24:46;100570.66;;;28.08;42.94
68871;BME280;55906;52.278;6.808;2022-07-25T08:27:13;100570.03;;;28.02;43.02
68871;BME280;55906;52.278;6.808;2022-07-25T08:29:40;100571.44;;;28.10;42.82
68871;BME280;55906;52.278;6.808;2022-07-25T08:32:09;100578.31;;;28.17;42.95
68871;BME280;55906;52.278;6.808;2022-07-25T08:34:35;100588.31;;;28.15;42.90
68871;BME280;55906;52.278;6.808;2022-07-25T08:37:03;100579.41;;;28.13;42.64
68871;BME280;55906;52.278;6.808;2022-07-25T08:39:29;100574.00;;;28.13;42.74
68871;BME280;55906;52.278;6.808;2022-07-25T08:41:56;100581.00;;;28.17;42.72
68871;BME280;55906;52.278;6.808;2022-07-25T08:44:26;100590.88;;;28.00;43.15
68871;BME280;55906;52.278;6.808;2022-07-25T08:46:56;100582.03;;;27.97;43.27
68871;BME280;55906;52.278;6.808;2022-07-25T08:49:27;100581.66;;;28.22;43.00
68871;BME280;55906;52.278;6.808;2022-07-25T08:51:54;100593.78;;;28.32;42.64
68871;BME280;55906;52.278;6.808;2022-07-25T08:54:24;100594.41;;;28.37;42.61
68871;BME280;55906;52.278;6.808;2022-07-25T08:56:51;100594.88;;;28.45;42.77
68871;BME280;55906;52.278;6.808;2022-07-25T08:59:17;100578.41;;;28.50;42.61
68871;BME280;55906;52.278;6.808;2022-07-25T09:01:44;100591.78;;;28.53;42.67
68871;BME280;55906;52.278;6.808;2022-07-25T09:04:11;100583.25;;;28.60;42.85
68871;BME280;55906;52.278;6.808;2022-07-25T09:06:49;100586.13;;;28.57;42.54
68871;BME280;55906;52.278;6.808;2022-07-25T09:09:16;100575.78;;;28.48;42.93
68871;BME280;55906;52.278;6.808;2022-07-25T09:11:43;100571.31;;;28.64;42.96
68871;BME280;55906;52.278;6.808;2022-07-25T09:14:11;100566.63;;;28.68;42.56
68871;BME280;55906;52.278;6.808;2022-07-25T09:16:43;100571.88;;;28.71;42.86
68871;BME280;55906;52.278;6.808;2022-07-25T09:19:15;100585.78;;;28.81;42.63
68871;BME280;55906;52.278;6.808;2022-07-25T09:21:44;100580.88;;;28.72;42.66
68871;BME280;55906;52.278;6.808;2022-07-25T09:24:14;100577.75;;;28.79;42.70
68871;BME280;55906;52.278;6.808;2022-07-25T09:26:43;100560.69;;;28.94;42.57
68871;BME280;55906;52.278;6.808;2022-07-25T09:29:18;100554.16;;;29.30;41.89
68871;BME280;55906;52.278;6.808;2022-07-25T09:31:45;100569.00;;;29.23;41.21
68871;BME280;55906;52.278;6.808;2022-07-25T09:34:30;100585.94;;;29.44;40.51
68871;BME280;55906;52.278;6.808;2022-07-25T09:36:59;100597.47;;;29.47;40.83
68871;BME280;55906;52.278;6.808;2022-07-25T09:39:38;100597.81;;;29.57;37.21
68871;BME280;55906;52.278;6.808;2022-07-25T09:42:20;100588.28;;;29.50;37.10
68871;BME280;55906;52.278;6.808;2022-07-25T09:45:02;100594.28;;;29.39;35.41
68871;BME280;55906;52.278;6.808;2022-07-25T09:47:30;100587.72;;;29.27;36.23
68871;BME280;55906;52.278;6.808;2022-07-25T09:49:57;100591.34;;;29.44;36.03
68871;BME280;55906;52.278;6.808;2022-07-25T09:52:24;100594.94;;;29.60;35.89
68871;BME280;55906;52.278;6.808;2022-07-25T09:54:52;100586.53;;;29.80;35.72
68871;BME280;55906;52.278;6.808;2022-07-25T09:57:20;100591.63;;;30.32;35.54
68871;BME280;55906;52.278;6.808;2022-07-25T09:59:47;100585.31;;;30.76;35.55
68871;BME280;55906;52.278;6.808;2022-07-25T10:02:24;100583.00;;;31.41;34.45
68871;BME280;55906;52.278;6.808;2022-07-25T10:05:07;100586.56;;;31.70;31.74
68871;BME280;55906;52.278;6.808;2022-07-25T10:07:36;100597.38;;;32.11;31.75
68871;BME280;55906;52.278;6.808;2022-07-25T10:10:06;100594.22;;;32.17;31.73
68871;BME280;55906;52.278;6.808;2022-07-25T10:12:33;100591.16;;;32.09;31.37
68871;BME280;55906;52.278;6.808;2022-07-25T10:15:04;100594.00;;;32.07;30.37
68871;BME280;55906;52.278;6.808;2022-07-25T10:17:32;100588.28;;;31.98;31.33
68871;BME280;55906;52.278;6.808;2022-07-25T10:19:59;100591.69;;;32.28;30.60
68871;BME280;55906;52.278;6.808;2022-07-25T10:22:42;100593.72;;;32.64;30.41
68871;BME280;55906;52.278;6.808;2022-07-25T10:25:13;100590.44;;;33.10;29.43
68871;BME280;55906;52.278;6.808;2022-07-25T10:27:42;100587.38;;;33.15;30.26
68871;BME280;55906;52.278;6.808;2022-07-25T10:30:20;100596.31;;;33.42;29.28
68871;BME280;55906;52.278;6.808;2022-07-25T10:32:49;100594.78;;;33.25;29.34
68871;BME280;55906;52.278;6.808;2022-07-25T10:35:16;100594.34;;;33.44;29.05
68871;BME280;55906;52.278;6.808;2022-07-25T10:37:44;100601.63;;;33.80;27.91
68871;BME280;55906;52.278;6.808;2022-07-25T10:40:24;100599.25;;;33.39;28.68
68871;BME280;55906;52.278;6.808;2022-07-25T10:45:40;100603.66;;;34.26;28.00
68871;BME280;55906;52.278;6.808;2022-07-25T10:48:10;100609.22;;;34.48;28.06
68871;BME280;55906;52.278;6.808;2022-07-25T10:50:47;100601.16;;;35.15;27.26
68871;BME280;55906;52.278;6.808;2022-07-25T10:53:14;100604.38;;;34.52;27.10
68871;BME280;55906;52.278;6.808;2022-07-25T10:55:42;100612.06;;;34.47;27.07
68871;BME280;55906;52.278;6.808;2022-07-25T10:58:12;100598.31;;;34.24;26.86
68871;BME280;55906;52.278;6.808;2022-07-25T11:00:42;100610.84;;;34.27;26.73
68871;BME280;55906;52.278;6.808;2022-07-25T11:03:11;100610.94;;;34.84;26.25
68871;BME280;55906;52.278;6.808;2022-07-25T11:05:44;100606.63;;;35.26;25.06
68871;BME280;55906;52.278;6.808;2022-07-25T11:08:11;100608.97;;;35.09;25.70
68871;BME280;55906;52.278;6.808;2022-07-25T11:10:38;100613.59;;;35.31;26.25
68871;BME280;55906;52.278;6.808;2022-07-25T11:13:13;100620.25;;;35.94;24.55
68871;BME280;55906;52.278;6.808;2022-07-25T11:15:40;100616.81;;;35.58;24.81
68871;BME280;55906;52.278;6.808;2022-07-25T11:18:07;100615.16;;;35.78;24.67
68871;BME280;55906;52.278;6.808;2022-07-25T11:20:34;100619.09;;;36.07;24.49
68871;BME280;55906;52.278;6.808;2022-07-25T11:23:00;100615.91;;;35.80;24.70
68871;BME280;55906;52.278;6.808;2022-07-25T11:25:28;100627.28;;;35.53;25.87
68871;BME280;55906;52.278;6.808;2022-07-25T11:27:56;100621.16;;;35.72;25.72
68871;BME280;55906;52.278;6.808;2022-07-25T11:30:25;100626.09;;;36.00;25.66
68871;BME280;55906;52.278;6.808;2022-07-25T11:32:56;100624.88;;;35.93;25.71
68871;BME280;55906;52.278;6.808;2022-07-25T11:35:24;100625.41;;;35.31;27.08
68871;BME280;55906;52.278;6.808;2022-07-25T11:37:52;100637.72;;;34.68;27.70
68871;BME280;55906;52.278;6.808;2022-07-25T11:40:20;100641.13;;;34.48;27.25
68871;BME280;55906;52.278;6.808;2022-07-25T11:42:49;100630.16;;;34.13;28.18
68871;BME280;55906;52.278;6.808;2022-07-25T11:45:18;100636.09;;;34.07;28.51
68871;BME280;55906;52.278;6.808;2022-07-25T11:47:48;100640.59;;;33.58;28.45
68871;BME280;55906;52.278;6.808;2022-07-25T11:50:27;100639.88;;;33.31;28.51
68871;BME280;55906;52.278;6.808;2022-07-25T11:52:58;100641.94;;;32.89;29.01
68871;BME280;55906;52.278;6.808;2022-07-25T11:55:27;100648.59;;;32.45;29.59
68871;BME280;55906;52.278;6.808;2022-07-25T11:57:57;100649.22;;;32.09;30.81
68871;BME280;55906;52.278;6.808;2022-07-25T12:00:24;100634.00;;;31.93;31.08
68871;BME280;55906;52.278;6.808;2022-07-25T12:02:53;100661.28;;;31.64;32.04
68871;BME280;55906;52.278;6.808;2022-07-25T12:05:21;100658.59;;;31.36;33.23
68871;BME280;55906;52.278;6.808;2022-07-25T12:07:56;100650.47;;;31.06;33.28
68871;BME280;55906;52.278;6.808;2022-07-25T12:10:32;100651.53;;;30.89;33.15
68871;BME280;55906;52.278;6.808;2022-07-25T12:12:59;100664.31;;;30.73;33.64
68871;BME280;55906;52.278;6.808;2022-07-25T12:15:31;100656.13;;;30.59;34.36
68871;BME280;55906;52.278;6.808;2022-07-25T12:17:59;100657.78;;;30.45;34.46
68871;BME280;55906;52.278;6.808;2022-07-25T12:20:28;100654.38;;;30.12;34.73
68871;BME280;55906;52.278;6.808;2022-07-25T12:22:57;100660.19;;;29.88;35.78
68871;BME280;55906;52.278;6.808;2022-07-25T12:25:24;100661.78;;;29.77;35.69
68871;BME280;55906;52.278;6.808;2022-07-25T12:27:52;100660.38;;;29.54;36.73
68871;BME280;55906;52.278;6.808;2022-07-25T12:30:19;100664.88;;;29.38;37.33
68871;BME280;55906;52.278;6.808;2022-07-25T12:32:45;100671.47;;;29.16;37.64
68871;BME280;55906;52.278;6.808;2022-07-25T12:35:14;100670.06;;;29.09;36.65
68871;BME280;55906;52.278;6.808;2022-07-25T12:37:41;100681.78;;;29.10;36.18
68871;BME280;55906;52.278;6.808;2022-07-25T12:40:10;100681.06;;;29.39;35.99
68871;BME280;55906;52.278;6.808;2022-07-25T12:42:37;100695.00;;;29.49;36.35
68871;BME280;55906;52.278;6.808;2022-07-25T12:45:04;100680.97;;;29.41;36.21
68871;BME280;55906;52.278;6.808;2022-07-25T12:47:33;100675.44;;;29.26;36.71
68871;BME280;55906;52.278;6.808;2022-07-25T12:50:01;100692.03;;;29.20;36.87
68871;BME280;55906;52.278;6.808;2022-07-25T12:52:29;100710.25;;;29.01;38.30
68871;BME280;55906;52.278;6.808;2022-07-25T12:54:58;100706.91;;;28.96;38.52
68871;BME280;55906;52.278;6.808;2022-07-25T12:57:24;100700.66;;;28.77;39.18
68871;BME280;55906;52.278;6.808;2022-07-25T12:59:51;100724.56;;;28.68;39.09